sensor_id;sensor_type;location;lat;lon;timestamp;pressure;altitude;pressure_sealevel;temperature;humidity
4398;BME280;2213;49.720;7.296;2023-04-26T00:01:29;98294.09;;;4.73;100.00
4398;BME280;2213;49.720;7.296;2023-04-26T00:04:00;98289.59;;;4.75;100.00
4398;BME280;2213;49.720;7.296;2023-04-26T00:06:31;98296.56;;;4.75;100.00
4398;BME280;2213;49.720;7.296;2023-04-26T00:09:01;98298.44;;;4.73;100.00
4398;BME280;2213;49.720;7.296;2023-04-26T00:11:31;98294.69;;;4.67;100.00
4398;BME280;2213;49.720;7.296;2023-04-26T00:14:01;98296.63;;;4.55;100.00
4398;BME280;2213;49.720;7.296;2023-04-26T00:16:30;98305.78;;;4.50;100.00
4398;BME280;2213;49.720;7.296;2023-04-26T00:19:00;98301.28;;;4.52;100.00
4398;BME280;2213;49.720;7.296;2023-04-26T00:21:29;98304.56;;;4.54;100.00
4398;BME280;2213;49.720;7.296;2023-04-26T00:23:58;98309.84;;;4.52;100.00
4398;BME280;2213;49.720;7.296;2023-04-26T00:26:27;98314.38;;;4.50;100.00
4398;BME280;2213;49.720;7.296;2023-04-26T00:28:59;98310.56;;;4.45;100.00
4398;BME280;2213;49.720;7.296;2023-04-26T00:31:30;98307.69;;;4.48;100.00
4398;BME280;2213;49.720;7.296;2023-04-26T00:34:00;98298.59;;;4.44;100.00
4398;BME280;2213;49.720;7.296;2023-04-26T00:36:30;98312.25;;;4.36;100.00
4398;BME280;2213;49.720;7.296;2023-04-26T00:39:00;98304.06;;;4.31;100.00
4398;BME280;2213;49.720;7.296;2023-04-26T00:41:30;98303.25;;;4.31;100.00
4398;BME280;2213;49.720;7.296;2023-04-26T00:44:00;98304.22;;;4.30;100.00
4398;BME280;2213;49.720;7.296;2023-04-26T00:46:30;98306.28;;;4.26;100.00
4398;BME280;2213;49.720;7.296;2023-04-26T00:49:00;98305.22;;;4.19;100.00
4398;BME280;2213;49.720;7.296;2023-04-26T00:51:31;98306.56;;;4.23;100.00
4398;BME280;2213;49.720;7.296;2023-04-26T00:54:00;98305.22;;;4.19;100.00
4398;BME280;2213;49.720;7.296;2023-04-26T00:56:32;98303.31;;;4.12;100.00
4398;BME280;2213;49.720;7.296;2023-04-26T00:59:03;98310.13;;;4.13;100.00
4398;BME280;2213;49.720;7.296;2023-04-26T01:01:33;98300.56;;;4.13;100.00
4398;BME280;2213;49.720;7.296;2023-04-26T01:04:03;98297.34;;;4.11;100.00
4398;BME280;2213;49.720;7.296;2023-04-26T01:06:35;98301.69;;;4.11;100.00
4398;BME280;2213;49.720;7.296;2023-04-26T01:09:06;98299.63;;;4.14;100.00
4398;BME280;2213;49.720;7.296;2023-04-26T01:11:36;98305.75;;;4.13;100.00
4398;BME280;2213;49.720;7.296;2023-04-26T01:14:08;98303.34;;;4.02;100.00
4398;BME280;2213;49.720;7.296;2023-04-26T01:16:38;98296.28;;;3.94;100.00
4398;BME280;2213;49.720;7.296;2023-04-26T01:19:10;98299.81;;;3.93;100.00
4398;BME280;2213;49.720;7.296;2023-04-26T01:21:40;98300.63;;;3.94;100.00
4398;BME280;2213;49.720;7.296;2023-04-26T01:24:12;98302.28;;;3.95;100.00
4398;BME280;2213;49.720;7.296;2023-04-26T01:26:43;98306.91;;;3.91;100.00
4398;BME280;2213;49.720;7.296;2023-04-26T01:29:18;98300.91;;;3.91;100.00
4398;BME280;2213;49.720;7.296;2023-04-26T01:31:48;98307.16;;;3.98;100.00
4398;BME280;2213;49.720;7.296;2023-04-26T01:34:18;98309.78;;;3.88;100.00
4398;BME280;2213;49.720;7.296;2023-04-26T01:36:49;98300.78;;;3.83;100.00
4398;BME280;2213;49.720;7.296;2023-04-26T01:39:21;98303.66;;;3.80;100.00
4398;BME280;2213;49.720;7.296;2023-04-26T01:41:51;98297.81;;;3.78;100.00
4398;BME280;2213;49.720;7.296;2023-04-26T01:44:22;98293.31;;;3.70;100.00
4398;BME280;2213;49.720;7.296;2023-04-26T01:46:51;98296.59;;;3.63;100.00
4398;BME280;2213;49.720;7.296;2023-04-26T01:49:21;98295.78;;;3.62;100.00
4398;BME280;2213;49.720;7.296;2023-04-26T01:51:51;98289.63;;;3.73;100.00
4398;BME280;2213;49.720;7.296;2023-04-26T01:54:22;98290.47;;;3.73;100.00
4398;BME280;2213;49.720;7.296;2023-04-26T01:56:52;98292.09;;;3.65;100.00
4398;BME280;2213;49.720;7.296;2023-04-26T01:59:22;98292.66;;;3.59;100.00
4398;BME280;2213;49.720;7.296;2023-04-26T02:01:53;98285.84;;;3.58;100.00
4398;BME280;2213;49.720;7.296;2023-04-26T02:04:24;98285.72;;;3.49;100.00
4398;BME280;2213;49.720;7.296;2023-04-26T02:06:53;98296.34;;;3.46;100.00
4398;BME280;2213;49.720;7.296;2023-04-26T02:09:23;98287.34;;;3.41;100.00
4398;BME280;2213;49.720;7.296;2023-04-26T02:11:52;98284.34;;;3.45;100.00
4398;BME280;2213;49.720;7.296;2023-04-26T02:14:23;98289.81;;;3.42;100.00
4398;BME280;2213;49.720;7.296;2023-04-26T02:16:53;98288.44;;;3.38;100.00
4398;BME280;2213;49.720;7.296;2023-04-26T02:19:24;98298.34;;;3.33;100.00
4398;BME280;2213;49.720;7.296;2023-04-26T02:21:56;98297.69;;;3.31;100.00
4398;BME280;2213;49.720;7.296;2023-04-26T02:24:26;98300.38;;;3.30;100.00
4398;BME280;2213;49.720;7.296;2023-04-26T02:26:58;98296.31;;;3.27;100.00
4398;BME280;2213;49.720;7.296;2023-04-26T02:29:31;98296.59;;;3.24;100.00
4398;BME280;2213;49.720;7.296;2023-04-26T02:32:11;98293.84;;;3.16;100.00
4398;BME280;2213;49.720;7.296;2023-04-26T02:34:40;98297.13;;;3.18;100.00
4398;BME280;2213;49.720;7.296;2023-04-26T02:37:10;98297.41;;;3.15;100.00
4398;BME280;2213;49.720;7.296;2023-04-26T02:39:41;98302.31;;;3.18;100.00
4398;BME280;2213;49.720;7.296;2023-04-26T02:42:10;98297.41;;;3.15;100.00
4398;BME280;2213;49.720;7.296;2023-04-26T02:44:40;98300.81;;;3.16;100.00
4398;BME280;2213;49.720;7.296;2023-04-26T02:47:09;98305.00;;;3.17;100.00
4398;BME280;2213;49.720;7.296;2023-04-26T02:49:39;98301.75;;;3.15;100.00
4398;BME280;2213;49.720;7.296;2023-04-26T02:52:09;98300.94;;;3.14;100.00
4398;BME280;2213;49.720;7.296;2023-04-26T02:54:42;98300.94;;;3.14;100.00
4398;BME280;2213;49.720;7.296;2023-04-26T02:57:11;98294.94;;;3.14;100.00
4398;BME280;2213;49.720;7.296;2023-04-26T02:59:41;98296.16;;;3.10;100.00
4398;BME280;2213;49.720;7.296;2023-04-26T03:02:10;98288.94;;;3.03;100.00
4398;BME280;2213;49.720;7.296;2023-04-26T03:04:41;98296.03;;;3.01;100.00
4398;BME280;2213;49.720;7.296;2023-04-26T03:07:11;98295.50;;;3.08;100.00
4398;BME280;2213;49.720;7.296;2023-04-26T03:09:42;98297.13;;;3.09;100.00
4398;BME280;2213;49.720;7.296;2023-04-26T03:12:13;98289.91;;;3.02;100.00
4398;BME280;2213;49.720;7.296;2023-04-26T03:14:43;98285.69;;;3.01;100.00
4398;BME280;2213;49.720;7.296;2023-04-26T03:17:13;98285.81;;;3.00;100.00
4398;BME280;2213;49.720;7.296;2023-04-26T03:19:43;98288.00;;;2.95;100.00
4398;BME280;2213;49.720;7.296;2023-04-26T03:22:13;98283.63;;;2.95;100.00
4398;BME280;2213;49.720;7.296;2023-04-26T03:24:44;98284.88;;;3.01;100.00
4398;BME280;2213;49.720;7.296;2023-04-26T03:27:15;98272.50;;;3.04;100.00
4398;BME280;2213;49.720;7.296;2023-04-26T03:29:45;98268.16;;;3.05;100.00
4398;BME280;2213;49.720;7.296;2023-04-26T03:32:14;98269.13;;;3.04;100.00
4398;BME280;2213;49.720;7.296;2023-04-26T03:34:43;98262.19;;;2.95;100.00
4398;BME280;2213;49.720;7.296;2023-04-26T03:37:15;98265.00;;;2.92;100.00
4398;BME280;2213;49.720;7.296;2023-04-26T03:39:47;98264.88;;;2.93;100.00
4398;BME280;2213;49.720;7.296;2023-04-26T03:42:18;98257.00;;;2.95;100.00
4398;BME280;2213;49.720;7.296;2023-04-26T03:44:48;98261.34;;;2.94;100.00
4398;BME280;2213;49.720;7.296;2023-04-26T03:47:17;98267.19;;;2.96;100.00
4398;BME280;2213;49.720;7.296;2023-04-26T03:49:47;98262.56;;;3.00;100.00
4398;BME280;2213;49.720;7.296;2023-04-26T03:52:17;98263.66;;;2.97;100.00
4398;BME280;2213;49.720;7.296;2023-04-26T03:54:49;98269.50;;;2.99;100.00
4398;BME280;2213;49.720;7.296;2023-04-26T03:57:18;98270.59;;;2.97;100.00
4398;BME280;2213;49.720;7.296;2023-04-26T03:59:48;98264.06;;;2.93;100.00
4398;BME280;2213;49.720;7.296;2023-04-26T04:02:17;98266.78;;;2.91;100.00
4398;BME280;2213;49.720;7.296;2023-04-26T04:04:48;98270.16;;;2.92;100.00
4398;BME280;2213;49.720;7.296;2023-04-26T04:07:17;98268.94;;;2.86;100.00
4398;BME280;2213;49.720;7.296;2023-04-26T04:09:50;98264.72;;;2.85;100.00
4398;BME280;2213;49.720;7.296;2023-04-26T04:12:20;98265.13;;;2.81;100.00
4398;BME280;2213;49.720;7.296;2023-04-26T04:14:51;98263.50;;;2.80;100.00
4398;BME280;2213;49.720;7.296;2023-04-26T04:17:21;98269.19;;;2.74;100.00
4398;BME280;2213;49.720;7.296;2023-04-26T04:19:52;98273.41;;;2.75;100.00
4398;BME280;2213;49.720;7.296;2023-04-26T04:22:22;98275.31;;;2.73;100.00
4398;BME280;2213;49.720;7.296;2023-04-26T04:24:54;98274.09;;;2.77;100.00
4398;BME280;2213;49.720;7.296;2023-04-26T04:27:23;98278.56;;;2.75;100.00
4398;BME280;2213;49.720;7.296;2023-04-26T04:29:53;98273.41;;;2.75;100.00
4398;BME280;2213;49.720;7.296;2023-04-26T04:32:22;98280.72;;;2.70;100.00
4398;BME280;2213;49.720;7.296;2023-04-26T04:34:52;98283.06;;;2.73;100.00
4398;BME280;2213;49.720;7.296;2023-04-26T04:37:22;98290.25;;;2.69;100.00
4398;BME280;2213;49.720;7.296;2023-04-26T04:39:54;98287.53;;;2.71;100.00
4398;BME280;2213;49.720;7.296;2023-04-26T04:42:23;98289.97;;;2.72;100.00
4398;BME280;2213;49.720;7.296;2023-04-26T04:44:54;98285.47;;;2.74;100.00
4398;BME280;2213;49.720;7.296;2023-04-26T04:47:26;98294.19;;;2.73;100.00
4398;BME280;2213;49.720;7.296;2023-04-26T04:49:57;98293.50;;;2.71;100.00
4398;BME280;2213;49.720;7.296;2023-04-26T04:52:27;98293.50;;;2.71;100.00
4398;BME280;2213;49.720;7.296;2023-04-26T04:54:58;98296.63;;;2.75;100.00
4398;BME280;2213;49.720;7.296;2023-04-26T04:57:29;98301.25;;;2.71;100.00
4398;BME280;2213;49.720;7.296;2023-04-26T05:00:00;98308.19;;;2.71;100.00
4398;BME280;2213;49.720;7.296;2023-04-26T05:02:37;98306.81;;;2.67;100.00
4398;BME280;2213;49.720;7.296;2023-04-26T05:05:08;98306.94;;;2.65;100.00
4398;BME280;2213;49.720;7.296;2023-04-26T05:07:38;98306.81;;;2.67;100.00
4398;BME280;2213;49.720;7.296;2023-04-26T05:10:11;98308.56;;;2.66;100.00
4398;BME280;2213;49.720;7.296;2023-04-26T05:12:41;98311.84;;;2.68;100.00
4398;BME280;2213;49.720;7.296;2023-04-26T05:15:11;98308.19;;;2.71;100.00
4398;BME280;2213;49.720;7.296;2023-04-26T05:17:42;98316.47;;;2.74;100.00
4398;BME280;2213;49.720;7.296;2023-04-26T05:20:13;98318.94;;;2.76;100.00
4398;BME280;2213;49.720;7.296;2023-04-26T05:22:42;98317.00;;;2.78;100.00
4398;BME280;2213;49.720;7.296;2023-04-26T05:25:12;98315.81;;;2.82;100.00
4398;BME280;2213;49.720;7.296;2023-04-26T05:27:45;98312.56;;;2.80;100.00
4398;BME280;2213;49.720;7.296;2023-04-26T05:30:15;98317.84;;;2.78;100.00
4398;BME280;2213;49.720;7.296;2023-04-26T05:32:44;98325.47;;;2.80;100.00
4398;BME280;2213;49.720;7.296;2023-04-26T05:35:13;98328.72;;;2.82;100.00
4398;BME280;2213;49.720;7.296;2023-04-26T05:37:43;98324.38;;;2.82;100.00
4398;BME280;2213;49.720;7.296;2023-04-26T05:40:15;98330.81;;;2.88;100.00
4398;BME280;2213;49.720;7.296;2023-04-26T05:42:46;98327.25;;;2.89;100.00
4398;BME280;2213;49.720;7.296;2023-04-26T05:45:17;98333.78;;;2.93;100.00
4398;BME280;2213;49.720;7.296;2023-04-26T05:47:47;98326.84;;;2.93;100.00
4398;BME280;2213;49.720;7.296;2023-04-26T05:50:16;98324.16;;;2.95;100.00
4398;BME280;2213;49.720;7.296;2023-04-26T05:52:46;98322.91;;;2.99;100.00
4398;BME280;2213;49.720;7.296;2023-04-26T05:55:18;98329.72;;;3.00;100.00
4398;BME280;2213;49.720;7.296;2023-04-26T05:57:48;98331.38;;;3.01;100.00
4398;BME280;2213;49.720;7.296;2023-04-26T06:00:19;98337.75;;;3.07;100.00
4398;BME280;2213;49.720;7.296;2023-04-26T06:02:51;98335.72;;;3.10;100.00
4398;BME280;2213;49.720;7.296;2023-04-26T06:05:21;98336.44;;;3.12;100.00
4398;BME280;2213;49.720;7.296;2023-04-26T06:07:52;98330.72;;;3.18;100.00
4398;BME280;2213;49.720;7.296;2023-04-26T06:10:24;98325.56;;;3.28;100.00
4398;BME280;2213;49.720;7.296;2023-04-26T06:12:55;98333.59;;;3.34;100.00
4398;BME280;2213;49.720;7.296;2023-04-26T06:15:24;98328.97;;;3.38;100.00
4398;BME280;2213;49.720;7.296;2023-04-26T06:17:55;98331.97;;;3.43;100.00
4398;BME280;2213;49.720;7.296;2023-04-26T06:20:24;98332.09;;;3.51;100.00
4398;BME280;2213;49.720;7.296;2023-04-26T06:22:55;98328.84;;;3.59;100.00
4398;BME280;2213;49.720;7.296;2023-04-26T06:25:26;98321.63;;;3.62;100.00
4398;BME280;2213;49.720;7.296;2023-04-26T06:27:56;98324.63;;;3.67;100.00
4398;BME280;2213;49.720;7.296;2023-04-26T06:30:27;98324.91;;;3.74;100.00
4398;BME280;2213;49.720;7.296;2023-04-26T06:32:58;98332.25;;;3.78;100.00
4398;BME280;2213;49.720;7.296;2023-04-26T06:35:28;98324.31;;;3.89;100.00
4398;BME280;2213;49.720;7.296;2023-04-26T06:37:58;98326.22;;;3.97;100.00
4398;BME280;2213;49.720;7.296;2023-04-26T06:40:31;98331.81;;;4.02;100.00
4398;BME280;2213;49.720;7.296;2023-04-26T06:43:02;98333.03;;;4.07;100.00
4398;BME280;2213;49.720;7.296;2023-04-26T06:45:31;98333.00;;;4.17;100.00
4398;BME280;2213;49.720;7.296;2023-04-26T06:48:02;98336.94;;;4.21;100.00
4398;BME280;2213;49.720;7.296;2023-04-26T06:50:36;98333.53;;;4.30;100.00
4398;BME280;2213;49.720;7.296;2023-04-26T06:53:07;98329.91;;;4.41;100.00
4398;BME280;2213;49.720;7.296;2023-04-26T06:55:38;98323.91;;;4.50;100.00
4398;BME280;2213;49.720;7.296;2023-04-26T06:58:09;98330.28;;;4.55;100.00
4398;BME280;2213;49.720;7.296;2023-04-26T07:00:38;98329.75;;;4.62;100.00
4398;BME280;2213;49.720;7.296;2023-04-26T07:03:09;98324.66;;;4.70;100.00
4398;BME280;2213;49.720;7.296;2023-04-26T07:05:39;98320.22;;;4.80;100.00
4398;BME280;2213;49.720;7.296;2023-04-26T07:08:08;98316.94;;;4.87;100.00
4398;BME280;2213;49.720;7.296;2023-04-26T07:10:41;98313.75;;;4.93;100.00
4398;BME280;2213;49.720;7.296;2023-04-26T07:13:12;98304.31;;;5.02;100.00
4398;BME280;2213;49.720;7.296;2023-04-26T07:15:43;98303.41;;;5.11;100.00
4398;BME280;2213;49.720;7.296;2023-04-26T07:18:13;98299.16;;;5.20;100.00
4398;BME280;2213;49.720;7.296;2023-04-26T07:20:42;98304.38;;;5.28;100.00
4398;BME280;2213;49.720;7.296;2023-04-26T07:23:13;98301.75;;;5.37;100.00
4398;BME280;2213;49.720;7.296;2023-04-26T07:25:44;98295.66;;;5.46;100.00
4398;BME280;2213;49.720;7.296;2023-04-26T07:28:15;98287.16;;;5.54;100.00
4398;BME280;2213;49.720;7.296;2023-04-26T07:30:45;98291.59;;;5.62;100.00
4398;BME280;2213;49.720;7.296;2023-04-26T07:33:14;98288.38;;;5.68;100.00
4398;BME280;2213;49.720;7.296;2023-04-26T07:35:43;98288.59;;;5.74;100.00
4398;BME280;2213;49.720;7.296;2023-04-26T07:38:13;98287.16;;;5.80;100.00
4398;BME280;2213;49.720;7.296;2023-04-26T07:40:49;98290.81;;;5.87;100.00
4398;BME280;2213;49.720;7.296;2023-04-26T07:43:19;98298.03;;;5.93;100.00
4398;BME280;2213;49.720;7.296;2023-04-26T07:45:50;98298.22;;;5.99;100.00
4398;BME280;2213;49.720;7.296;2023-04-26T07:48:20;98289.97;;;6.04;100.00
4398;BME280;2213;49.720;7.296;2023-04-26T07:50:50;98293.75;;;6.10;100.00
4398;BME280;2213;49.720;7.296;2023-04-26T07:53:20;98290.72;;;6.14;100.00
4398;BME280;2213;49.720;7.296;2023-04-26T07:55:51;98291.56;;;6.23;100.00
4398;BME280;2213;49.720;7.296;2023-04-26T07:58:22;98291.75;;;6.29;100.00
4398;BME280;2213;49.720;7.296;2023-04-26T08:00:51;98294.72;;;6.34;100.00
4398;BME280;2213;49.720;7.296;2023-04-26T08:03:22;98299.94;;;6.42;100.00
4398;BME280;2213;49.720;7.296;2023-04-26T08:05:55;98288.78;;;6.50;100.00
4398;BME280;2213;49.720;7.296;2023-04-26T08:08:26;98287.03;;;6.58;100.00
4398;BME280;2213;49.720;7.296;2023-04-26T08:10:57;98286.09;;;6.68;100.00
4398;BME280;2213;49.720;7.296;2023-04-26T08:13:27;98286.97;;;6.76;100.00
4398;BME280;2213;49.720;7.296;2023-04-26T08:15:57;98280.66;;;6.87;100.00
4398;BME280;2213;49.720;7.296;2023-04-26T08:18:27;98276.13;;;6.97;100.00
4398;BME280;2213;49.720;7.296;2023-04-26T08:20:57;98277.63;;;7.07;100.00
4398;BME280;2213;49.720;7.296;2023-04-26T08:23:26;98269.81;;;7.16;100.00
4398;BME280;2213;49.720;7.296;2023-04-26T08:25:59;98279.09;;;7.26;100.00
4398;BME280;2213;49.720;7.296;2023-04-26T08:28:29;98269.53;;;7.35;100.00
4398;BME280;2213;49.720;7.296;2023-04-26T08:30:59;98279.16;;;7.42;100.00
4398;BME280;2213;49.720;7.296;2023-04-26T08:33:29;98276.53;;;7.50;100.00
4398;BME280;2213;49.720;7.296;2023-04-26T08:35:58;98282.56;;;7.59;100.00
4398;BME280;2213;49.720;7.296;2023-04-26T08:38:29;98279.31;;;7.65;100.00
4398;BME280;2213;49.720;7.296;2023-04-26T08:41:03;98278.31;;;7.74;100.00
4398;BME280;2213;49.720;7.296;2023-04-26T08:43:36;98277.50;;;7.82;100.00
4398;BME280;2213;49.720;7.296;2023-04-26T08:46:12;98271.00;;;7.94;100.00
4398;BME280;2213;49.720;7.296;2023-04-26T08:48:53;98268.22;;;8.03;98.10
4398;BME280;2213;49.720;7.296;2023-04-26T08:51:29;98273.56;;;8.10;96.91
4398;BME280;2213;49.720;7.296;2023-04-26T08:54:01;98271.94;;;8.17;95.92
4398;BME280;2213;49.720;7.296;2023-04-26T08:56:34;98274.53;;;8.25;95.07
4398;BME280;2213;49.720;7.296;2023-04-26T08:59:03;98262.66;;;8.31;94.31
4398;BME280;2213;49.720;7.296;2023-04-26T09:01:34;98264.44;;;8.38;94.23
4398;BME280;2213;49.720;7.296;2023-04-26T09:04:06;98260.66;;;8.41;92.66
4398;BME280;2213;49.720;7.296;2023-04-26T09:06:38;98251.53;;;8.45;90.68
4398;BME280;2213;49.720;7.296;2023-04-26T09:09:10;98248.59;;;8.48;88.58
4398;BME280;2213;49.720;7.296;2023-04-26T09:11:57;98251.16;;;8.56;88.20
4398;BME280;2213;49.720;7.296;2023-04-26T09:14:27;98248.69;;;8.63;88.17
4398;BME280;2213;49.720;7.296;2023-04-26T09:16:58;98252.41;;;8.68;88.55
4398;BME280;2213;49.720;7.296;2023-04-26T09:19:35;98251.75;;;8.74;87.96
4398;BME280;2213;49.720;7.296;2023-04-26T09:22:05;98247.63;;;8.80;87.47
4398;BME280;2213;49.720;7.296;2023-04-26T09:24:50;98243.53;;;8.85;85.79
4398;BME280;2213;49.720;7.296;2023-04-26T09:27:21;98250.50;;;8.93;83.79
4398;BME280;2213;49.720;7.296;2023-04-26T09:30:02;98248.81;;;9.00;84.26
4398;BME280;2213;49.720;7.296;2023-04-26T09:33:09;98250.13;;;9.04;82.73
4398;BME280;2213;49.720;7.296;2023-04-26T09:35:40;98246.00;;;9.09;78.97
4398;BME280;2213;49.720;7.296;2023-04-26T09:38:13;98252.69;;;9.12;79.58
4398;BME280;2213;49.720;7.296;2023-04-26T09:40:44;98241.56;;;9.18;79.20
4398;BME280;2213;49.720;7.296;2023-04-26T09:43:17;98236.81;;;9.22;79.21
4398;BME280;2213;49.720;7.296;2023-04-26T09:45:48;98241.16;;;9.29;80.15
4398;BME280;2213;49.720;7.296;2023-04-26T09:48:19;98240.28;;;9.37;80.98
4398;BME280;2213;49.720;7.296;2023-04-26T09:50:51;98236.97;;;9.43;79.97
4398;BME280;2213;49.720;7.296;2023-04-26T09:53:29;98231.88;;;9.49;80.09
4398;BME280;2213;49.720;7.296;2023-04-26T09:56:07;98234.41;;;9.57;78.99
4398;BME280;2213;49.720;7.296;2023-04-26T09:58:54;98228.66;;;9.62;77.98
4398;BME280;2213;49.720;7.296;2023-04-26T10:01:28;98231.19;;;9.70;78.22
4398;BME280;2213;49.720;7.296;2023-04-26T10:04:00;98229.03;;;9.74;77.04
4398;BME280;2213;49.720;7.296;2023-04-26T10:06:31;98225.72;;;9.80;76.94
4398;BME280;2213;49.720;7.296;2023-04-26T10:09:01;98225.09;;;9.78;74.87
4398;BME280;2213;49.720;7.296;2023-04-26T10:11:34;98218.53;;;9.82;74.37
4398;BME280;2213;49.720;7.296;2023-04-26T10:14:07;98218.53;;;9.82;73.01
4398;BME280;2213;49.720;7.296;2023-04-26T10:16:38;98217.25;;;9.78;72.03
4398;BME280;2213;49.720;7.296;2023-04-26T10:19:08;98214.56;;;9.86;71.69
4398;BME280;2213;49.720;7.296;2023-04-26T10:21:40;98207.00;;;9.91;71.37
4398;BME280;2213;49.720;7.296;2023-04-26T10:24:10;98213.13;;;9.98;70.95
4398;BME280;2213;49.720;7.296;2023-04-26T10:26:47;98201.97;;;10.04;70.05
4398;BME280;2213;49.720;7.296;2023-04-26T10:29:21;98208.09;;;10.11;69.13
4398;BME280;2213;49.720;7.296;2023-04-26T10:32:07;98200.56;;;10.16;68.33
4398;BME280;2213;49.720;7.296;2023-04-26T10:34:39;98194.97;;;10.19;67.66
4398;BME280;2213;49.720;7.296;2023-04-26T10:37:11;98188.78;;;10.20;65.43
4398;BME280;2213;49.720;7.296;2023-04-26T10:39:42;98176.50;;;10.21;63.21
4398;BME280;2213;49.720;7.296;2023-04-26T10:42:24;98178.56;;;10.25;63.34
4398;BME280;2213;49.720;7.296;2023-04-26T10:44:56;98179.84;;;10.29;63.00
4398;BME280;2213;49.720;7.296;2023-04-26T10:47:31;98174.88;;;10.34;64.57
4398;BME280;2213;49.720;7.296;2023-04-26T10:50:04;98179.53;;;10.39;64.56
4398;BME280;2213;49.720;7.296;2023-04-26T10:52:35;98173.78;;;10.43;63.62
4398;BME280;2213;49.720;7.296;2023-04-26T10:55:06;98174.47;;;10.52;64.24
4398;BME280;2213;49.720;7.296;2023-04-26T10:57:48;98172.94;;;10.57;65.41
4398;BME280;2213;49.720;7.296;2023-04-26T11:00:28;98176.19;;;10.59;64.86
4398;BME280;2213;49.720;7.296;2023-04-26T11:03:04;98170.06;;;10.52;63.04
4398;BME280;2213;49.720;7.296;2023-04-26T11:05:53;98161.84;;;10.55;63.62
4398;BME280;2213;49.720;7.296;2023-04-26T11:08:27;98163.53;;;10.63;65.05
4398;BME280;2213;49.720;7.296;2023-04-26T11:11:06;98166.44;;;10.68;64.66
4398;BME280;2213;49.720;7.296;2023-04-26T11:13:39;98159.25;;;10.77;65.27
4398;BME280;2213;49.720;7.296;2023-04-26T11:16:11;98165.06;;;10.72;62.85
4398;BME280;2213;49.720;7.296;2023-04-26T11:18:43;98159.47;;;10.75;61.55
4398;BME280;2213;49.720;7.296;2023-04-26T11:21:14;98156.28;;;10.80;61.35
4398;BME280;2213;49.720;7.296;2023-04-26T11:23:53;98147.72;;;10.86;60.62
4398;BME280;2213;49.720;7.296;2023-04-26T11:26:31;98165.28;;;10.92;60.46
4398;BME280;2213;49.720;7.296;2023-04-26T11:29:01;98151.53;;;10.90;59.10
4398;BME280;2213;49.720;7.296;2023-04-26T11:31:32;98149.56;;;10.92;59.09
4398;BME280;2213;49.720;7.296;2023-04-26T11:34:03;98144.94;;;10.94;59.15
4398;BME280;2213;49.720;7.296;2023-04-26T11:36:37;98134.53;;;11.00;59.78
4398;BME280;2213;49.720;7.296;2023-04-26T11:39:08;98127.78;;;11.06;59.79
4398;BME280;2213;49.720;7.296;2023-04-26T11:41:40;98135.84;;;11.11;61.03
4398;BME280;2213;49.720;7.296;2023-04-26T11:44:10;98139.34;;;11.18;61.64
4398;BME280;2213;49.720;7.296;2023-04-26T11:46:41;98136.94;;;11.17;60.21
4398;BME280;2213;49.720;7.296;2023-04-26T11:49:12;98134.53;;;11.22;59.95
4398;BME280;2213;49.720;7.296;2023-04-26T11:51:45;98126.50;;;11.23;60.17
4398;BME280;2213;49.720;7.296;2023-04-26T11:54:28;98129.34;;;11.28;60.28
4398;BME280;2213;49.720;7.296;2023-04-26T11:56:59;98127.00;;;11.33;59.56
4398;BME280;2213;49.720;7.296;2023-04-26T11:59:30;98113.72;;;11.35;58.03
4398;BME280;2213;49.720;7.296;2023-04-26T12:02:05;98116.38;;;11.41;58.84
4398;BME280;2213;49.720;7.296;2023-04-26T12:04:36;98121.50;;;11.56;59.68
4398;BME280;2213;49.720;7.296;2023-04-26T12:07:08;98119.38;;;11.66;57.68
4398;BME280;2213;49.720;7.296;2023-04-26T12:09:40;98113.94;;;11.68;56.19
4398;BME280;2213;49.720;7.296;2023-04-26T12:12:10;98109.75;;;11.73;56.45
4398;BME280;2213;49.720;7.296;2023-04-26T12:14:41;98108.78;;;11.81;56.36
4398;BME280;2213;49.720;7.296;2023-04-26T12:17:14;98115.91;;;11.87;55.29
4398;BME280;2213;49.720;7.296;2023-04-26T12:19:48;98120.38;;;11.93;55.28
4398;BME280;2213;49.720;7.296;2023-04-26T12:22:20;98106.06;;;11.95;54.57
4398;BME280;2213;49.720;7.296;2023-04-26T12:25:03;98108.72;;;12.02;55.16
4398;BME280;2213;49.720;7.296;2023-04-26T12:27:33;98103.25;;;11.97;53.59
4398;BME280;2213;49.720;7.296;2023-04-26T12:30:04;98102.09;;;12.06;54.49
4398;BME280;2213;49.720;7.296;2023-04-26T12:32:37;98106.78;;;12.17;54.72
4398;BME280;2213;49.720;7.296;2023-04-26T12:35:08;98105.00;;;12.24;54.41
4398;BME280;2213;49.720;7.296;2023-04-26T12:37:37;98098.13;;;12.23;52.39
4398;BME280;2213;49.720;7.296;2023-04-26T12:40:10;98096.94;;;12.32;52.63
4398;BME280;2213;49.720;7.296;2023-04-26T12:42:39;98101.00;;;12.41;52.61
4398;BME280;2213;49.720;7.296;2023-04-26T12:45:10;98097.00;;;12.45;51.77
4398;BME280;2213;49.720;7.296;2023-04-26T12:47:40;98095.38;;;12.44;51.21
4398;BME280;2213;49.720;7.296;2023-04-26T12:50:10;98093.16;;;12.48;51.31
4398;BME280;2213;49.720;7.296;2023-04-26T12:52:43;98100.25;;;12.60;51.64
4398;BME280;2213;49.720;7.296;2023-04-26T12:55:15;98105.72;;;12.72;51.48
4398;BME280;2213;49.720;7.296;2023-04-26T12:57:44;98101.91;;;12.75;50.52
4398;BME280;2213;49.720;7.296;2023-04-26T13:00:16;98113.41;;;12.74;50.40
4398;BME280;2213;49.720;7.296;2023-04-26T13:02:46;98110.00;;;12.80;49.89
4398;BME280;2213;49.720;7.296;2023-04-26T13:05:16;98105.34;;;12.82;50.01
4398;BME280;2213;49.720;7.296;2023-04-26T13:07:45;98105.75;;;12.85;49.80
4398;BME280;2213;49.720;7.296;2023-04-26T13:10:14;98102.72;;;12.88;49.87
4398;BME280;2213;49.720;7.296;2023-04-26T13:12:44;98105.56;;;13.00;51.01
4398;BME280;2213;49.720;7.296;2023-04-26T13:15:14;98105.34;;;12.95;49.19
4398;BME280;2213;49.720;7.296;2023-04-26T13:17:45;98112.44;;;13.01;49.80
4398;BME280;2213;49.720;7.296;2023-04-26T13:20:15;98109.00;;;13.00;49.27
4398;BME280;2213;49.720;7.296;2023-04-26T13:22:45;98109.19;;;12.99;48.96
4398;BME280;2213;49.720;7.296;2023-04-26T13:25:14;98099.09;;;13.02;48.76
4398;BME280;2213;49.720;7.296;2023-04-26T13:27:45;98104.34;;;13.02;48.35
4398;BME280;2213;49.720;7.296;2023-04-26T13:30:15;98091.63;;;13.06;48.36
4398;BME280;2213;49.720;7.296;2023-04-26T13:32:46;98093.47;;;13.12;49.13
4398;BME280;2213;49.720;7.296;2023-04-26T13:35:16;98087.84;;;13.15;49.63
4398;BME280;2213;49.720;7.296;2023-04-26T13:37:46;98087.03;;;13.21;50.07
4398;BME280;2213;49.720;7.296;2023-04-26T13:40:15;98094.31;;;13.26;49.56
4398;BME280;2213;49.720;7.296;2023-04-26T13:42:46;98088.66;;;13.29;49.30
4398;BME280;2213;49.720;7.296;2023-04-26T13:45:15;98086.59;;;13.37;49.94